• 1385014 10153382300060425 128216538 n
  • 3
  • 6
  • 7
  • 1
  • 10
  • 未命名
  • 121
  • 55
  • 2
  • cargo

Click here and log in to see your monthly flight duties. 請按此登入個人班表區

Welcome aboard

Current Weather

[source: ADDS]
METAR
RCTP 222000Z 33007KT 280V020 8000 -RA FEW003 BKN005 BKN016 25/24 Q1007 NOSIG RMK A2974 RA AMT 0.2MM =
TAF
TAF RCTP 221700Z 2218/2324 20005KT 8000 SCT010 BKN015 BKN040 TEMPO 2218/2224 3000 SHRA SCT005 BKN009 BKN015 BECMG 2303/2305 01010KT FEW015 BKN032 BECMG 2310/2312 05010KT TEMPO 2312/2318 24010KT 4000 SHRA FEW010 BKN016 BKN040 =